sensor_id;sensor_type;location;lat;lon;timestamp;temperature;humidity
65582;DHT22;52231;40.090;18.348;2022-09-09T00:00:55;25.50;88.40
65582;DHT22;52231;40.090;18.348;2022-09-09T00:03:53;25.50;88.30
65582;DHT22;52231;40.090;18.348;2022-09-09T00:06:50;25.50;88.30
65582;DHT22;52231;40.090;18.348;2022-09-09T00:09:27;25.50;88.40
65582;DHT22;52231;40.090;18.348;2022-09-09T00:12:04;25.40;88.50
65582;DHT22;52231;40.090;18.348;2022-09-09T00:20:32;25.40;88.90
65582;DHT22;52231;40.090;18.348;2022-09-09T00:32:17;25.30;89.20
65582;DHT22;52231;40.090;18.348;2022-09-09T00:34:54;25.40;89.10
65582;DHT22;52231;40.090;18.348;2022-09-09T00:37:24;25.40;89.00
65582;DHT22;52231;40.090;18.348;2022-09-09T00:39:59;25.40;88.90
65582;DHT22;52231;40.090;18.348;2022-09-09T00:42:43;25.40;88.90
65582;DHT22;52231;40.090;18.348;2022-09-09T00:58:30;25.40;88.90
65582;DHT22;52231;40.090;18.348;2022-09-09T01:06:34;25.30;89.30
65582;DHT22;52231;40.090;18.348;2022-09-09T01:09:25;25.30;89.50
65582;DHT22;52231;40.090;18.348;2022-09-09T01:12:09;25.30;89.60
65582;DHT22;52231;40.090;18.348;2022-09-09T01:14:44;25.30;89.70
65582;DHT22;52231;40.090;18.348;2022-09-09T01:17:28;25.30;89.80
65582;DHT22;52231;40.090;18.348;2022-09-09T01:20:15;25.20;89.90
65582;DHT22;52231;40.090;18.348;2022-09-09T01:28:25;25.10;90.40
65582;DHT22;52231;40.090;18.348;2022-09-09T01:31:00;25.20;90.70
65582;DHT22;52231;40.090;18.348;2022-09-09T01:33:34;25.10;90.80
65582;DHT22;52231;40.090;18.348;2022-09-09T01:36:23;25.10;90.90
65582;DHT22;52231;40.090;18.348;2022-09-09T01:38:53;25.10;90.90
65582;DHT22;52231;40.090;18.348;2022-09-09T01:41:22;25.10;90.90
65582;DHT22;52231;40.090;18.348;2022-09-09T01:44:09;25.00;90.90
65582;DHT22;52231;40.090;18.348;2022-09-09T01:46:41;25.00;91.00
65582;DHT22;52231;40.090;18.348;2022-09-09T01:49:16;25.00;91.00
65582;DHT22;52231;40.090;18.348;2022-09-09T01:52:03;25.00;91.10
65582;DHT22;52231;40.090;18.348;2022-09-09T01:54:35;25.00;91.20
65582;DHT22;52231;40.090;18.348;2022-09-09T01:57:25;25.00;91.30
65582;DHT22;52231;40.090;18.348;2022-09-09T02:00:06;25.10;91.40
65582;DHT22;52231;40.090;18.348;2022-09-09T02:02:52;25.10;91.40
65582;DHT22;52231;40.090;18.348;2022-09-09T02:08:19;25.10;91.40
65582;DHT22;52231;40.090;18.348;2022-09-09T02:11:02;25.10;91.30
65582;DHT22;52231;40.090;18.348;2022-09-09T02:13:46;25.10;91.30
65582;DHT22;52231;40.090;18.348;2022-09-09T02:16:50;25.10;91.30
65582;DHT22;52231;40.090;18.348;2022-09-09T02:19:27;25.10;91.40
65582;DHT22;52231;40.090;18.348;2022-09-09T02:22:21;25.10;91.50
65582;DHT22;52231;40.090;18.348;2022-09-09T02:24:50;25.10;91.60
65582;DHT22;52231;40.090;18.348;2022-09-09T02:27:25;25.10;91.50
65582;DHT22;52231;40.090;18.348;2022-09-09T02:30:13;25.10;91.60
65582;DHT22;52231;40.090;18.348;2022-09-09T02:32:49;25.10;91.70
65582;DHT22;52231;40.090;18.348;2022-09-09T02:35:23;25.10;91.70
65582;DHT22;52231;40.090;18.348;2022-09-09T02:37:54;25.10;91.70
65582;DHT22;52231;40.090;18.348;2022-09-09T02:40:24;25.10;91.80
65582;DHT22;52231;40.090;18.348;2022-09-09T02:42:59;25.10;91.80
65582;DHT22;52231;40.090;18.348;2022-09-09T02:46:00;25.10;91.80
65582;DHT22;52231;40.090;18.348;2022-09-09T02:54:30;25.10;91.90
65582;DHT22;52231;40.090;18.348;2022-09-09T02:57:23;25.10;91.80
65582;DHT22;52231;40.090;18.348;2022-09-09T02:59:57;25.10;91.80
65582;DHT22;52231;40.090;18.348;2022-09-09T03:02:26;25.10;91.80
65582;DHT22;52231;40.090;18.348;2022-09-09T03:05:01;25.10;91.70
65582;DHT22;52231;40.090;18.348;2022-09-09T03:07:29;25.10;91.60
65582;DHT22;52231;40.090;18.348;2022-09-09T03:09:57;25.10;91.40
65582;DHT22;52231;40.090;18.348;2022-09-09T03:12:27;25.00;91.20
65582;DHT22;52231;40.090;18.348;2022-09-09T03:14:55;25.10;91.10
65582;DHT22;52231;40.090;18.348;2022-09-09T03:17:24;25.10;91.00
65582;DHT22;52231;40.090;18.348;2022-09-09T03:19:54;25.20;90.80
65582;DHT22;52231;40.090;18.348;2022-09-09T03:22:24;25.30;90.80
65582;DHT22;52231;40.090;18.348;2022-09-09T03:24:54;25.30;90.80
65582;DHT22;52231;40.090;18.348;2022-09-09T03:27:22;25.30;90.80
65582;DHT22;52231;40.090;18.348;2022-09-09T03:29:51;25.30;90.80
65582;DHT22;52231;40.090;18.348;2022-09-09T03:32:23;25.30;90.80
65582;DHT22;52231;40.090;18.348;2022-09-09T03:34:55;25.30;90.80
65582;DHT22;52231;40.090;18.348;2022-09-09T03:37:24;25.30;90.80
65582;DHT22;52231;40.090;18.348;2022-09-09T03:39:53;25.20;90.80
65582;DHT22;52231;40.090;18.348;2022-09-09T03:42:24;25.20;90.80
65582;DHT22;52231;40.090;18.348;2022-09-09T03:44:54;25.20;90.70
65582;DHT22;52231;40.090;18.348;2022-09-09T03:47:26;25.20;90.70
65582;DHT22;52231;40.090;18.348;2022-09-09T03:50:01;25.20;90.80
65582;DHT22;52231;40.090;18.348;2022-09-09T03:52:29;25.30;90.90
65582;DHT22;52231;40.090;18.348;2022-09-09T03:54:58;25.30;90.90
65582;DHT22;52231;40.090;18.348;2022-09-09T03:57:26;25.20;90.80
65582;DHT22;52231;40.090;18.348;2022-09-09T03:59:54;25.20;90.70
65582;DHT22;52231;40.090;18.348;2022-09-09T04:02:22;25.30;90.60
65582;DHT22;52231;40.090;18.348;2022-09-09T04:04:51;25.30;90.60
65582;DHT22;52231;40.090;18.348;2022-09-09T04:07:19;25.30;90.60
65582;DHT22;52231;40.090;18.348;2022-09-09T04:09:47;25.30;90.70
65582;DHT22;52231;40.090;18.348;2022-09-09T04:12:15;25.30;90.80
65582;DHT22;52231;40.090;18.348;2022-09-09T04:14:44;25.30;90.80
65582;DHT22;52231;40.090;18.348;2022-09-09T04:17:12;25.30;90.80
65582;DHT22;52231;40.090;18.348;2022-09-09T04:19:40;25.30;90.80
65582;DHT22;52231;40.090;18.348;2022-09-09T04:22:10;25.30;90.80
65582;DHT22;52231;40.090;18.348;2022-09-09T04:24:38;25.30;90.70
65582;DHT22;52231;40.090;18.348;2022-09-09T04:27:07;25.30;90.70
65582;DHT22;52231;40.090;18.348;2022-09-09T04:29:36;25.30;90.80
65582;DHT22;52231;40.090;18.348;2022-09-09T04:32:04;25.30;90.80
65582;DHT22;52231;40.090;18.348;2022-09-09T04:34:33;25.30;90.80
65582;DHT22;52231;40.090;18.348;2022-09-09T04:37:01;25.30;90.80
65582;DHT22;52231;40.090;18.348;2022-09-09T04:39:29;25.30;90.80
65582;DHT22;52231;40.090;18.348;2022-09-09T04:41:59;25.30;90.70
65582;DHT22;52231;40.090;18.348;2022-09-09T04:44:27;25.30;90.70
65582;DHT22;52231;40.090;18.348;2022-09-09T04:46:56;25.30;90.70
65582;DHT22;52231;40.090;18.348;2022-09-09T04:49:24;25.30;90.70
65582;DHT22;52231;40.090;18.348;2022-09-09T04:52:12;25.30;90.70
65582;DHT22;52231;40.090;18.348;2022-09-09T04:54:40;25.30;90.70
65582;DHT22;52231;40.090;18.348;2022-09-09T04:57:10;25.30;90.60
65582;DHT22;52231;40.090;18.348;2022-09-09T04:59:40;25.40;90.50
65582;DHT22;52231;40.090;18.348;2022-09-09T05:02:09;25.40;90.50
65582;DHT22;52231;40.090;18.348;2022-09-09T05:04:38;25.40;90.50
65582;DHT22;52231;40.090;18.348;2022-09-09T05:07:07;25.50;90.50
65582;DHT22;52231;40.090;18.348;2022-09-09T05:09:36;25.50;90.40
65582;DHT22;52231;40.090;18.348;2022-09-09T05:12:04;25.60;90.30
65582;DHT22;52231;40.090;18.348;2022-09-09T05:14:35;25.70;89.90
65582;DHT22;52231;40.090;18.348;2022-09-09T05:17:06;25.70;89.60
65582;DHT22;52231;40.090;18.348;2022-09-09T05:19:37;25.80;89.40
65582;DHT22;52231;40.090;18.348;2022-09-09T05:22:05;25.90;88.90
65582;DHT22;52231;40.090;18.348;2022-09-09T05:24:41;26.00;88.70
65582;DHT22;52231;40.090;18.348;2022-09-09T05:27:09;26.10;88.10
65582;DHT22;52231;40.090;18.348;2022-09-09T05:29:58;26.20;87.80
65582;DHT22;52231;40.090;18.348;2022-09-09T05:32:26;26.20;87.60
65582;DHT22;52231;40.090;18.348;2022-09-09T05:34:55;26.30;87.60
65582;DHT22;52231;40.090;18.348;2022-09-09T05:37:23;26.30;87.30
65582;DHT22;52231;40.090;18.348;2022-09-09T05:39:52;26.30;87.00
65582;DHT22;52231;40.090;18.348;2022-09-09T05:42:21;26.40;87.10
65582;DHT22;52231;40.090;18.348;2022-09-09T05:44:49;26.50;86.80
65582;DHT22;52231;40.090;18.348;2022-09-09T05:47:18;26.60;86.10
65582;DHT22;52231;40.090;18.348;2022-09-09T05:49:46;26.80;85.70
65582;DHT22;52231;40.090;18.348;2022-09-09T05:52:14;26.90;85.40
65582;DHT22;52231;40.090;18.348;2022-09-09T05:54:42;27.00;84.90
65582;DHT22;52231;40.090;18.348;2022-09-09T05:57:11;27.20;84.30
65582;DHT22;52231;40.090;18.348;2022-09-09T05:59:39;27.20;83.90
65582;DHT22;52231;40.090;18.348;2022-09-09T06:02:09;27.30;83.80
65582;DHT22;52231;40.090;18.348;2022-09-09T06:04:37;27.30;83.50
65582;DHT22;52231;40.090;18.348;2022-09-09T06:07:06;27.30;83.50
65582;DHT22;52231;40.090;18.348;2022-09-09T06:09:35;27.30;83.40
65582;DHT22;52231;40.090;18.348;2022-09-09T06:12:03;27.30;83.40
65582;DHT22;52231;40.090;18.348;2022-09-09T06:14:34;27.30;83.50
65582;DHT22;52231;40.090;18.348;2022-09-09T06:17:03;27.30;83.60
65582;DHT22;52231;40.090;18.348;2022-09-09T06:19:31;27.30;83.70
65582;DHT22;52231;40.090;18.348;2022-09-09T06:22:00;27.30;83.50
65582;DHT22;52231;40.090;18.348;2022-09-09T06:24:31;27.30;83.10
65582;DHT22;52231;40.090;18.348;2022-09-09T06:27:19;27.30;83.20
65582;DHT22;52231;40.090;18.348;2022-09-09T06:29:47;27.30;83.30
65582;DHT22;52231;40.090;18.348;2022-09-09T06:32:17;27.20;83.70
65582;DHT22;52231;40.090;18.348;2022-09-09T06:34:45;27.20;83.70
65582;DHT22;52231;40.090;18.348;2022-09-09T06:37:14;27.50;83.10
65582;DHT22;52231;40.090;18.348;2022-09-09T06:39:47;27.70;82.20
65582;DHT22;52231;40.090;18.348;2022-09-09T06:42:16;27.90;81.60
65582;DHT22;52231;40.090;18.348;2022-09-09T06:45:05;28.00;80.40
65582;DHT22;52231;40.090;18.348;2022-09-09T06:47:42;28.00;80.00
65582;DHT22;52231;40.090;18.348;2022-09-09T06:50:10;28.30;79.40
65582;DHT22;52231;40.090;18.348;2022-09-09T06:52:39;28.60;78.40
65582;DHT22;52231;40.090;18.348;2022-09-09T06:55:09;28.80;78.30
65582;DHT22;52231;40.090;18.348;2022-09-09T06:57:38;28.90;77.30
65582;DHT22;52231;40.090;18.348;2022-09-09T07:00:12;28.60;78.10
65582;DHT22;52231;40.090;18.348;2022-09-09T07:02:41;28.50;79.00
65582;DHT22;52231;40.090;18.348;2022-09-09T07:05:10;28.80;78.30
65582;DHT22;52231;40.090;18.348;2022-09-09T07:07:40;28.80;77.80
65582;DHT22;52231;40.090;18.348;2022-09-09T07:10:11;28.40;78.90
65582;DHT22;52231;40.090;18.348;2022-09-09T07:12:40;28.30;79.20
65582;DHT22;52231;40.090;18.348;2022-09-09T07:15:10;28.40;78.50
65582;DHT22;52231;40.090;18.348;2022-09-09T07:17:43;28.50;77.90
65582;DHT22;52231;40.090;18.348;2022-09-09T07:20:11;28.30;79.10
65582;DHT22;52231;40.090;18.348;2022-09-09T07:22:42;28.10;80.20
65582;DHT22;52231;40.090;18.348;2022-09-09T07:25:11;28.60;79.30
65582;DHT22;52231;40.090;18.348;2022-09-09T07:27:39;29.10;77.70
65582;DHT22;52231;40.090;18.348;2022-09-09T07:30:10;29.60;74.40
65582;DHT22;52231;40.090;18.348;2022-09-09T07:32:39;29.50;73.80
65582;DHT22;52231;40.090;18.348;2022-09-09T07:35:07;29.20;73.70
65582;DHT22;52231;40.090;18.348;2022-09-09T07:37:39;29.20;73.80
65582;DHT22;52231;40.090;18.348;2022-09-09T07:40:07;29.70;72.70
65582;DHT22;52231;40.090;18.348;2022-09-09T07:42:35;29.80;71.50
65582;DHT22;52231;40.090;18.348;2022-09-09T07:45:05;29.80;71.70
65582;DHT22;52231;40.090;18.348;2022-09-09T07:47:33;29.70;72.10
65582;DHT22;52231;40.090;18.348;2022-09-09T07:50:03;29.50;72.60
65582;DHT22;52231;40.090;18.348;2022-09-09T07:52:33;29.60;72.40
65582;DHT22;52231;40.090;18.348;2022-09-09T07:55:05;30.30;70.60
65582;DHT22;52231;40.090;18.348;2022-09-09T07:57:34;30.90;67.50
65582;DHT22;52231;40.090;18.348;2022-09-09T08:00:04;31.00;66.60
65582;DHT22;52231;40.090;18.348;2022-09-09T08:02:38;31.00;66.70
65582;DHT22;52231;40.090;18.348;2022-09-09T08:05:25;31.30;65.90
65582;DHT22;52231;40.090;18.348;2022-09-09T08:07:53;31.10;65.70
65582;DHT22;52231;40.090;18.348;2022-09-09T08:10:22;30.80;67.60
65582;DHT22;52231;40.090;18.348;2022-09-09T08:12:51;30.70;68.40
65582;DHT22;52231;40.090;18.348;2022-09-09T08:15:28;30.60;67.90
65582;DHT22;52231;40.090;18.348;2022-09-09T08:17:58;30.80;67.00
65582;DHT22;52231;40.090;18.348;2022-09-09T08:20:27;31.00;66.80
65582;DHT22;52231;40.090;18.348;2022-09-09T08:22:56;31.00;66.50
65582;DHT22;52231;40.090;18.348;2022-09-09T08:25:24;30.80;67.50
65582;DHT22;52231;40.090;18.348;2022-09-09T08:27:53;30.90;67.20
65582;DHT22;52231;40.090;18.348;2022-09-09T08:30:21;31.30;65.80
65582;DHT22;52231;40.090;18.348;2022-09-09T08:37:40;31.80;63.70
65582;DHT22;52231;40.090;18.348;2022-09-09T08:40:26;31.60;65.40
65582;DHT22;52231;40.090;18.348;2022-09-09T08:42:58;31.50;65.00
65582;DHT22;52231;40.090;18.348;2022-09-09T08:45:44;31.60;65.50
65582;DHT22;52231;40.090;18.348;2022-09-09T08:50:50;31.60;65.20
65582;DHT22;52231;40.090;18.348;2022-09-09T08:53:39;31.90;65.00
65582;DHT22;52231;40.090;18.348;2022-09-09T08:56:16;32.10;64.00
65582;DHT22;52231;40.090;18.348;2022-09-09T08:58:51;32.10;63.50
65582;DHT22;52231;40.090;18.348;2022-09-09T09:02:03;32.10;63.30
65582;DHT22;52231;40.090;18.348;2022-09-09T09:14:00;32.30;63.40
65582;DHT22;52231;40.090;18.348;2022-09-09T09:18:52;32.70;61.80
65582;DHT22;52231;40.090;18.348;2022-09-09T09:21:41;32.90;61.50
65582;DHT22;52231;40.090;18.348;2022-09-09T09:24:20;32.90;59.80
65582;DHT22;52231;40.090;18.348;2022-09-09T09:26:51;32.90;59.90
65582;DHT22;52231;40.090;18.348;2022-09-09T09:29:23;32.40;61.30
65582;DHT22;52231;40.090;18.348;2022-09-09T09:31:56;32.10;63.10
65582;DHT22;52231;40.090;18.348;2022-09-09T09:34:28;32.30;62.60
65582;DHT22;52231;40.090;18.348;2022-09-09T09:37:01;32.20;62.80
65582;DHT22;52231;40.090;18.348;2022-09-09T09:39:33;32.40;61.90
65582;DHT22;52231;40.090;18.348;2022-09-09T09:42:27;32.20;61.30
65582;DHT22;52231;40.090;18.348;2022-09-09T09:45:08;32.70;60.00
65582;DHT22;52231;40.090;18.348;2022-09-09T09:47:38;33.10;58.00
65582;DHT22;52231;40.090;18.348;2022-09-09T09:50:19;33.00;58.80
65582;DHT22;52231;40.090;18.348;2022-09-09T09:52:56;33.00;59.30
65582;DHT22;52231;40.090;18.348;2022-09-09T09:55:29;33.10;58.70
65582;DHT22;52231;40.090;18.348;2022-09-09T09:58:06;33.40;61.60
65582;DHT22;52231;40.090;18.348;2022-09-09T10:00:48;32.90;62.20
65582;DHT22;52231;40.090;18.348;2022-09-09T10:03:25;33.00;63.00
65582;DHT22;52231;40.090;18.348;2022-09-09T10:05:56;33.30;58.20
65582;DHT22;52231;40.090;18.348;2022-09-09T10:08:26;33.40;58.50
65582;DHT22;52231;40.090;18.348;2022-09-09T10:14:24;32.60;62.80
65582;DHT22;52231;40.090;18.348;2022-09-09T10:17:12;32.30;64.10
65582;DHT22;52231;40.090;18.348;2022-09-09T10:20:04;32.30;63.70
65582;DHT22;52231;40.090;18.348;2022-09-09T10:22:39;32.40;63.90
65582;DHT22;52231;40.090;18.348;2022-09-09T10:25:39;32.30;65.60
65582;DHT22;52231;40.090;18.348;2022-09-09T10:28:53;31.90;66.60
65582;DHT22;52231;40.090;18.348;2022-09-09T10:31:37;31.70;67.90
65582;DHT22;52231;40.090;18.348;2022-09-09T10:37:03;31.50;67.80
65582;DHT22;52231;40.090;18.348;2022-09-09T10:39:37;31.40;68.80
65582;DHT22;52231;40.090;18.348;2022-09-09T10:42:15;31.60;68.50
65582;DHT22;52231;40.090;18.348;2022-09-09T10:45:17;31.90;67.70
65582;DHT22;52231;40.090;18.348;2022-09-09T10:47:56;32.10;66.50
65582;DHT22;52231;40.090;18.348;2022-09-09T10:50:42;32.20;66.10
65582;DHT22;52231;40.090;18.348;2022-09-09T10:54:07;32.30;66.00
65582;DHT22;52231;40.090;18.348;2022-09-09T10:56:32;32.30;65.30
65582;DHT22;52231;40.090;18.348;2022-09-09T10:59:10;32.00;65.80
65582;DHT22;52231;40.090;18.348;2022-09-09T11:02:26;31.90;66.10
65582;DHT22;52231;40.090;18.348;2022-09-09T11:13:02;32.70;64.40
65582;DHT22;52231;40.090;18.348;2022-09-09T11:15:46;32.80;64.00
65582;DHT22;52231;40.090;18.348;2022-09-09T11:18:41;32.90;63.20
65582;DHT22;52231;40.090;18.348;2022-09-09T11:21:22;33.30;62.40
65582;DHT22;52231;40.090;18.348;2022-09-09T11:24:05;33.30;62.30
65582;DHT22;52231;40.090;18.348;2022-09-09T11:26:47;33.20;63.20
65582;DHT22;52231;40.090;18.348;2022-09-09T11:29:22;33.20;63.10
65582;DHT22;52231;40.090;18.348;2022-09-09T11:35:12;32.80;63.90
65582;DHT22;52231;40.090;18.348;2022-09-09T11:38:03;32.30;64.90
65582;DHT22;52231;40.090;18.348;2022-09-09T11:40:33;32.10;66.00
65582;DHT22;52231;40.090;18.348;2022-09-09T11:43:03;32.30;65.70
65582;DHT22;52231;40.090;18.348;2022-09-09T11:45:34;32.30;65.20
65582;DHT22;52231;40.090;18.348;2022-09-09T11:48:04;32.00;66.50
65582;DHT22;52231;40.090;18.348;2022-09-09T11:50:36;32.00;66.40
65582;DHT22;52231;40.090;18.348;2022-09-09T11:53:22;31.70;66.80
65582;DHT22;52231;40.090;18.348;2022-09-09T11:56:26;31.90;66.80
65582;DHT22;52231;40.090;18.348;2022-09-09T12:01:37;31.40;68.80
65582;DHT22;52231;40.090;18.348;2022-09-09T12:04:16;31.20;69.20
65582;DHT22;52231;40.090;18.348;2022-09-09T12:06:59;31.10;70.00
65582;DHT22;52231;40.090;18.348;2022-09-09T12:09:39;31.40;69.30
65582;DHT22;52231;40.090;18.348;2022-09-09T12:17:31;31.90;67.10
65582;DHT22;52231;40.090;18.348;2022-09-09T12:20:21;32.30;66.70
65582;DHT22;52231;40.090;18.348;2022-09-09T12:28:22;32.50;65.30
65582;DHT22;52231;40.090;18.348;2022-09-09T12:31:11;32.60;64.70
65582;DHT22;52231;40.090;18.348;2022-09-09T12:33:46;32.90;64.30
65582;DHT22;52231;40.090;18.348;2022-09-09T12:36:36;33.10;63.10
65582;DHT22;52231;40.090;18.348;2022-09-09T12:39:38;33.20;62.80
65582;DHT22;52231;40.090;18.348;2022-09-09T12:42:30;32.40;65.00
65582;DHT22;52231;40.090;18.348;2022-09-09T12:45:14;32.00;66.50
65582;DHT22;52231;40.090;18.348;2022-09-09T12:47:49;31.80;67.50
65582;DHT22;52231;40.090;18.348;2022-09-09T12:50:24;31.90;67.90
65582;DHT22;52231;40.090;18.348;2022-09-09T12:53:02;32.10;67.50
65582;DHT22;52231;40.090;18.348;2022-09-09T12:55:32;32.60;65.90
65582;DHT22;52231;40.090;18.348;2022-09-09T12:58:04;32.80;65.20
65582;DHT22;52231;40.090;18.348;2022-09-09T13:00:34;33.30;63.60
65582;DHT22;52231;40.090;18.348;2022-09-09T13:03:20;33.30;63.20
65582;DHT22;52231;40.090;18.348;2022-09-09T13:05:50;33.20;63.40
65582;DHT22;52231;40.090;18.348;2022-09-09T13:08:19;33.10;62.60
65582;DHT22;52231;40.090;18.348;2022-09-09T13:10:59;33.00;63.30
65582;DHT22;52231;40.090;18.348;2022-09-09T13:13:36;32.90;63.60
65582;DHT22;52231;40.090;18.348;2022-09-09T13:16:18;32.80;64.50
65582;DHT22;52231;40.090;18.348;2022-09-09T13:19:14;32.70;64.90
65582;DHT22;52231;40.090;18.348;2022-09-09T13:21:49;32.50;65.70
65582;DHT22;52231;40.090;18.348;2022-09-09T13:24:34;32.30;66.00
65582;DHT22;52231;40.090;18.348;2022-09-09T13:27:39;31.90;66.20
65582;DHT22;52231;40.090;18.348;2022-09-09T13:30:36;31.70;67.00
65582;DHT22;52231;40.090;18.348;2022-09-09T13:35:52;31.40;68.90
65582;DHT22;52231;40.090;18.348;2022-09-09T13:38:22;31.60;68.30
65582;DHT22;52231;40.090;18.348;2022-09-09T13:43:38;31.40;67.50
65582;DHT22;52231;40.090;18.348;2022-09-09T13:46:35;31.40;68.20
65582;DHT22;52231;40.090;18.348;2022-09-09T13:54:09;30.90;70.20
65582;DHT22;52231;40.090;18.348;2022-09-09T13:56:39;30.80;70.10
65582;DHT22;52231;40.090;18.348;2022-09-09T13:59:19;30.60;70.40
65582;DHT22;52231;40.090;18.348;2022-09-09T14:01:47;30.60;70.30
65582;DHT22;52231;40.090;18.348;2022-09-09T14:04:17;30.60;71.10
65582;DHT22;52231;40.090;18.348;2022-09-09T14:06:45;30.60;71.70
65582;DHT22;52231;40.090;18.348;2022-09-09T14:09:14;30.40;71.90
65582;DHT22;52231;40.090;18.348;2022-09-09T14:11:44;30.30;71.60
65582;DHT22;52231;40.090;18.348;2022-09-09T14:14:15;30.20;72.30
65582;DHT22;52231;40.090;18.348;2022-09-09T14:16:44;30.00;73.10
65582;DHT22;52231;40.090;18.348;2022-09-09T14:19:12;29.80;73.60
65582;DHT22;52231;40.090;18.348;2022-09-09T14:21:40;29.80;73.80
65582;DHT22;52231;40.090;18.348;2022-09-09T14:24:09;29.60;74.90
65582;DHT22;52231;40.090;18.348;2022-09-09T14:26:37;29.60;75.20
65582;DHT22;52231;40.090;18.348;2022-09-09T14:29:05;29.50;75.70
65582;DHT22;52231;40.090;18.348;2022-09-09T14:31:34;29.40;75.80
65582;DHT22;52231;40.090;18.348;2022-09-09T14:34:03;29.30;76.30
65582;DHT22;52231;40.090;18.348;2022-09-09T14:36:32;29.20;76.70
65582;DHT22;52231;40.090;18.348;2022-09-09T14:39:00;29.10;77.30
65582;DHT22;52231;40.090;18.348;2022-09-09T14:41:28;28.90;77.90
65582;DHT22;52231;40.090;18.348;2022-09-09T14:43:57;28.90;78.30
65582;DHT22;52231;40.090;18.348;2022-09-09T14:46:25;28.90;78.40
65582;DHT22;52231;40.090;18.348;2022-09-09T14:48:54;29.10;77.70
65582;DHT22;52231;40.090;18.348;2022-09-09T14:51:24;29.00;77.90
65582;DHT22;52231;40.090;18.348;2022-09-09T14:53:58;29.00;78.00
65582;DHT22;52231;40.090;18.348;2022-09-09T14:56:28;29.10;78.20
65582;DHT22;52231;40.090;18.348;2022-09-09T14:58:58;29.20;77.70
65582;DHT22;52231;40.090;18.348;2022-09-09T15:01:30;29.30;77.90
65582;DHT22;52231;40.090;18.348;2022-09-09T15:04:02;29.30;77.90
65582;DHT22;52231;40.090;18.348;2022-09-09T15:06:32;29.20;78.00
65582;DHT22;52231;40.090;18.348;2022-09-09T15:09:07;29.30;77.70
65582;DHT22;52231;40.090;18.348;2022-09-09T15:11:36;29.20;77.90
65582;DHT22;52231;40.090;18.348;2022-09-09T15:14:07;29.30;78.00
65582;DHT22;52231;40.090;18.348;2022-09-09T15:16:36;29.10;78.10
65582;DHT22;52231;40.090;18.348;2022-09-09T15:19:04;29.10;78.40
65582;DHT22;52231;40.090;18.348;2022-09-09T15:21:35;29.00;78.70
65582;DHT22;52231;40.090;18.348;2022-09-09T15:24:04;29.00;78.70
65582;DHT22;52231;40.090;18.348;2022-09-09T15:26:32;28.80;78.70
65582;DHT22;52231;40.090;18.348;2022-09-09T15:29:00;28.80;79.00
65582;DHT22;52231;40.090;18.348;2022-09-09T15:31:30;28.80;79.20
65582;DHT22;52231;40.090;18.348;2022-09-09T15:34:05;28.90;79.10
65582;DHT22;52231;40.090;18.348;2022-09-09T15:36:52;29.10;78.60
65582;DHT22;52231;40.090;18.348;2022-09-09T15:39:20;29.10;78.70
65582;DHT22;52231;40.090;18.348;2022-09-09T15:41:49;29.00;78.90
65582;DHT22;52231;40.090;18.348;2022-09-09T15:44:18;28.90;79.20
65582;DHT22;52231;40.090;18.348;2022-09-09T15:46:52;28.80;78.90
65582;DHT22;52231;40.090;18.348;2022-09-09T15:49:24;28.50;79.70
65582;DHT22;52231;40.090;18.348;2022-09-09T15:51:55;28.40;80.10
65582;DHT22;52231;40.090;18.348;2022-09-09T15:54:25;28.40;80.40
65582;DHT22;52231;40.090;18.348;2022-09-09T15:56:56;28.30;80.90
65582;DHT22;52231;40.090;18.348;2022-09-09T15:59:26;28.20;81.40
65582;DHT22;52231;40.090;18.348;2022-09-09T16:01:55;28.10;81.80
65582;DHT22;52231;40.090;18.348;2022-09-09T16:04:24;28.00;82.20
65582;DHT22;52231;40.090;18.348;2022-09-09T16:07:00;28.00;82.40
65582;DHT22;52231;40.090;18.348;2022-09-09T16:09:30;28.00;82.50
65582;DHT22;52231;40.090;18.348;2022-09-09T16:12:00;27.90;82.80
65582;DHT22;52231;40.090;18.348;2022-09-09T16:14:34;28.00;82.80
65582;DHT22;52231;40.090;18.348;2022-09-09T16:17:04;28.00;82.70
65582;DHT22;52231;40.090;18.348;2022-09-09T16:19:33;27.90;83.00
65582;DHT22;52231;40.090;18.348;2022-09-09T16:22:02;27.90;82.80
65582;DHT22;52231;40.090;18.348;2022-09-09T16:24:32;27.90;82.80
65582;DHT22;52231;40.090;18.348;2022-09-09T16:27:00;27.90;82.90
65582;DHT22;52231;40.090;18.348;2022-09-09T16:29:28;27.90;82.80
65582;DHT22;52231;40.090;18.348;2022-09-09T16:31:56;27.90;83.10
65582;DHT22;52231;40.090;18.348;2022-09-09T16:34:26;27.80;83.50
65582;DHT22;52231;40.090;18.348;2022-09-09T16:36:54;27.80;83.30
65582;DHT22;52231;40.090;18.348;2022-09-09T16:39:22;27.70;83.80
65582;DHT22;52231;40.090;18.348;2022-09-09T16:41:50;27.70;83.90
65582;DHT22;52231;40.090;18.348;2022-09-09T16:44:19;27.60;84.10
65582;DHT22;52231;40.090;18.348;2022-09-09T16:46:48;27.60;84.10
65582;DHT22;52231;40.090;18.348;2022-09-09T16:49:16;27.60;84.30
65582;DHT22;52231;40.090;18.348;2022-09-09T16:51:49;27.40;84.30
65582;DHT22;52231;40.090;18.348;2022-09-09T16:54:17;27.30;84.60
65582;DHT22;52231;40.090;18.348;2022-09-09T16:56:47;27.20;85.10
65582;DHT22;52231;40.090;18.348;2022-09-09T16:59:18;27.10;85.40
65582;DHT22;52231;40.090;18.348;2022-09-09T17:01:49;27.00;85.60
65582;DHT22;52231;40.090;18.348;2022-09-09T17:04:20;26.90;85.70
65582;DHT22;52231;40.090;18.348;2022-09-09T17:06:50;26.90;85.60
65582;DHT22;52231;40.090;18.348;2022-09-09T17:09:20;26.80;85.20
65582;DHT22;52231;40.090;18.348;2022-09-09T17:11:48;26.80;84.70
65582;DHT22;52231;40.090;18.348;2022-09-09T17:14:21;26.70;84.60
65582;DHT22;52231;40.090;18.348;2022-09-09T17:16:49;26.80;84.80
65582;DHT22;52231;40.090;18.348;2022-09-09T17:19:17;26.70;85.60
65582;DHT22;52231;40.090;18.348;2022-09-09T17:21:45;26.70;86.10
65582;DHT22;52231;40.090;18.348;2022-09-09T17:24:35;26.60;86.60
65582;DHT22;52231;40.090;18.348;2022-09-09T17:27:06;26.60;87.00
65582;DHT22;52231;40.090;18.348;2022-09-09T17:29:34;26.50;87.50
65582;DHT22;52231;40.090;18.348;2022-09-09T17:32:04;26.50;87.60
65582;DHT22;52231;40.090;18.348;2022-09-09T17:34:34;26.40;87.60
65582;DHT22;52231;40.090;18.348;2022-09-09T17:37:04;26.40;87.30
65582;DHT22;52231;40.090;18.348;2022-09-09T17:39:35;26.40;87.60
65582;DHT22;52231;40.090;18.348;2022-09-09T17:42:03;26.40;87.80
65582;DHT22;52231;40.090;18.348;2022-09-09T17:44:31;26.30;88.10
65582;DHT22;52231;40.090;18.348;2022-09-09T17:47:00;26.40;88.50